Time;durP1;ratioP1;P1;durP2;ratioP2;P2;SDS_P1;SDS_P2;PMS_P1;PMS_P2;Temp;Humidity;BMP_temperature;BMP_pressure;BME280_temperature;BME280_humidity;BME280_pressure;Samples;Min_cycle;Max_cycle;Signal;HPM_P1;HPM_P2
2021/05/01 00:00:41;;;;;;;2.80;2.70;;;21.70;43.90;;;;;;5004674;28;20419;-68
2021/05/01 00:03:07;;;;;;;2.75;2.65;;;21.70;43.70;;;;;;5004501;28;20462;-68
2021/05/01 00:05:33;;;;;;;2.90;2.70;;;21.70;43.80;;;;;;4993344;28;20429;-68
2021/05/01 00:07:59;;;;;;;3.20;3.00;;;21.70;43.70;;;;;;5009973;28;20479;-69
2021/05/01 00:10:26;;;;;;;3.10;2.90;;;21.70;43.80;;;;;;5006408;28;20421;-69
2021/05/01 00:12:53;;;;;;;2.90;2.80;;;21.70;43.80;;;;;;4994370;28;20548;-68
2021/05/01 00:15:19;;;;;;;2.80;2.60;;;21.70;43.80;;;;;;5007014;28;20475;-68
2021/05/01 00:17:45;;;;;;;2.67;2.47;;;21.70;43.80;;;;;;5003963;28;20434;-69
2021/05/01 00:20:12;;;;;;;2.60;2.50;;;21.70;44.00;;;;;;4992586;28;21517;-68
2021/05/01 00:22:39;;;;;;;2.97;2.78;;;21.70;44.00;;;;;;5012479;28;20471;-68
2021/05/01 00:25:06;;;;;;;2.90;2.80;;;21.70;43.90;;;;;;5009962;28;20418;-68
2021/05/01 00:27:32;;;;;;;3.00;2.80;;;21.70;43.80;;;;;;5005320;28;20874;-68
2021/05/01 00:29:59;;;;;;;2.53;2.43;;;21.70;43.70;;;;;;5007205;28;20419;-67
2021/05/01 00:32:25;;;;;;;3.10;2.90;;;21.70;43.90;;;;;;5006445;28;20906;-69
2021/05/01 00:34:51;;;;;;;2.92;2.72;;;21.70;43.90;;;;;;5002887;28;20428;-69
2021/05/01 00:37:17;;;;;;;3.10;2.90;;;21.70;43.80;;;;;;5006484;28;20745;-67
2021/05/01 00:39:43;;;;;;;2.83;2.58;;;21.70;43.90;;;;;;5007813;28;20411;-69
2021/05/01 00:42:10;;;;;;;2.90;2.72;;;21.70;44.00;;;;;;5006731;28;20425;-68
2021/05/01 00:44:36;;;;;;;3.45;3.20;;;21.70;44.10;;;;;;5008231;28;20418;-68
2021/05/01 00:47:03;;;;;;;2.80;2.70;;;21.60;44.00;;;;;;5005610;28;20861;-68
2021/05/01 00:49:29;;;;;;;3.10;2.80;;;21.60;44.00;;;;;;5000010;28;20423;-69
2021/05/01 00:51:55;;;;;;;3.70;3.17;;;21.60;44.10;;;;;;5004981;28;20424;-68
2021/05/01 00:54:21;;;;;;;3.00;2.90;;;21.60;44.10;;;;;;5003507;28;20428;-69
2021/05/01 00:56:48;;;;;;;3.20;3.00;;;21.50;44.20;;;;;;5005022;28;21483;-68
2021/05/01 00:59:14;;;;;;;2.67;2.58;;;21.60;44.20;;;;;;5002347;28;20417;-69
2021/05/01 01:01:47;;;;;;;3.22;3.03;;;21.60;44.10;;;;;;5010596;28;20419;-69
2021/05/01 01:04:14;;;;;;;2.83;2.70;;;21.60;44.20;;;;;;5004078;28;21002;-69
2021/05/01 01:06:40;;;;;;;2.63;2.53;;;21.60;44.10;;;;;;5004061;28;20433;-68
2021/05/01 01:09:07;;;;;;;2.50;2.40;;;21.60;44.00;;;;;;5005879;28;20862;-69
2021/05/01 01:11:33;;;;;;;2.60;2.50;;;21.60;44.00;;;;;;5004793;28;21052;-68
2021/05/01 01:14:01;;;;;;;2.47;2.35;;;21.70;44.10;;;;;;5000795;28;20546;-68
2021/05/01 01:16:28;;;;;;;3.40;2.60;;;21.60;43.90;;;;;;4999495;28;20493;-68
2021/05/01 01:18:54;;;;;;;2.40;2.30;;;21.60;44.10;;;;;;4998114;28;20877;-69
2021/05/01 01:21:21;;;;;;;2.50;2.40;;;21.60;43.90;;;;;;5000678;28;20454;-69
2021/05/01 01:23:49;;;;;;;2.73;2.63;;;21.60;44.10;;;;;;5011820;28;20492;-68
2021/05/01 01:26:15;;;;;;;2.58;2.47;;;21.50;44.10;;;;;;4994156;28;20499;-68
2021/05/01 01:28:41;;;;;;;2.10;2.00;;;21.60;44.00;;;;;;5003307;28;20414;-68
2021/05/01 01:31:07;;;;;;;3.13;3.00;;;21.50;44.10;;;;;;5000963;28;20438;-69
2021/05/01 01:33:33;;;;;;;3.10;2.90;;;21.50;44.20;;;;;;5005986;28;20423;-68
2021/05/01 01:36:00;;;;;;;2.85;2.67;;;21.50;44.10;;;;;;4996829;28;20423;-68
2021/05/01 01:38:26;;;;;;;2.30;2.20;;;21.50;44.10;;;;;;5019990;28;20425;-69
2021/05/01 01:40:53;;;;;;;2.30;2.15;;;21.50;44.20;;;;;;5004268;28;20507;-68
2021/05/01 01:43:19;;;;;;;2.50;2.40;;;21.50;44.10;;;;;;5002436;28;20418;-69
2021/05/01 01:45:45;;;;;;;2.20;2.10;;;21.50;44.20;;;;;;5005839;28;20444;-68
2021/05/01 01:48:11;;;;;;;2.40;2.30;;;21.50;44.10;;;;;;5007188;28;20930;-69
2021/05/01 01:50:38;;;;;;;2.40;2.30;;;21.50;44.00;;;;;;5004467;28;20427;-69
2021/05/01 01:53:04;;;;;;;2.40;2.30;;;21.60;44.10;;;;;;5000550;28;20471;-69
2021/05/01 01:55:30;;;;;;;2.10;1.90;;;21.60;44.10;;;;;;5009055;28;20818;-69
2021/05/01 01:57:57;;;;;;;2.40;2.30;;;21.60;44.00;;;;;;5014587;28;20797;-69
2021/05/01 02:00:24;;;;;;;2.40;2.30;;;21.60;44.00;;;;;;5001863;28;20411;-69
2021/05/01 02:02:50;;;;;;;2.20;2.10;;;21.70;44.10;;;;;;5018487;28;20412;-69
2021/05/01 02:05:17;;;;;;;2.30;2.20;;;21.60;43.90;;;;;;5005201;28;20421;-69
2021/05/01 02:07:43;;;;;;;2.10;2.00;;;21.60;44.00;;;;;;5013613;28;20411;-69
2021/05/01 02:10:10;;;;;;;2.30;2.20;;;21.70;43.90;;;;;;5009778;28;20449;-69
2021/05/01 02:12:38;;;;;;;2.10;2.00;;;21.60;44.00;;;;;;5005199;28;20480;-68
2021/05/01 02:15:09;;;;;;;2.50;2.40;;;21.60;44.00;;;;;;5010109;28;20419;-68
2021/05/01 02:17:36;;;;;;;2.40;2.30;;;21.60;44.10;;;;;;4998882;28;20428;-69
2021/05/01 02:20:02;;;;;;;2.20;2.10;;;21.60;44.10;;;;;;5006225;28;20436;-68
2021/05/01 02:22:28;;;;;;;2.30;2.20;;;21.60;44.20;;;;;;5009061;28;21402;-68
2021/05/01 02:24:54;;;;;;;2.20;2.10;;;21.60;44.10;;;;;;5009977;28;20909;-68
2021/05/01 02:27:20;;;;;;;2.90;2.60;;;21.60;44.20;;;;;;4993592;28;20911;-69
2021/05/01 02:29:46;;;;;;;2.05;1.95;;;21.60;44.00;;;;;;5001394;28;20419;-68
2021/05/01 02:32:13;;;;;;;2.10;2.00;;;21.60;44.10;;;;;;5008138;28;20423;-69
2021/05/01 02:34:39;;;;;;;2.13;2.03;;;21.60;43.90;;;;;;5017512;28;20476;-68
2021/05/01 02:37:06;;;;;;;2.20;2.10;;;21.60;44.00;;;;;;5007393;28;20419;-68
2021/05/01 02:39:32;;;;;;;2.20;2.10;;;21.60;44.00;;;;;;5007471;28;20468;-68
2021/05/01 02:41:58;;;;;;;2.40;2.30;;;21.60;44.00;;;;;;5009980;28;20417;-69
2021/05/01 02:44:25;;;;;;;2.30;1.90;;;21.60;43.80;;;;;;5008169;28;20828;-69
2021/05/01 02:46:51;;;;;;;1.92;1.83;;;21.60;44.00;;;;;;5005371;28;20415;-68
2021/05/01 02:49:18;;;;;;;2.10;2.00;;;21.60;44.10;;;;;;5007244;28;20412;-69
2021/05/01 02:51:44;;;;;;;1.88;1.88;;;21.60;44.10;;;;;;5007294;28;20418;-69
2021/05/01 02:54:10;;;;;;;2.17;2.08;;;21.60;44.10;;;;;;5007206;28;20483;-69
2021/05/01 02:56:36;;;;;;;1.92;1.83;;;21.60;44.10;;;;;;5007526;28;20415;-68
2021/05/01 02:59:03;;;;;;;2.10;2.00;;;21.50;44.10;;;;;;5008909;28;20423;-68
2021/05/01 03:01:29;;;;;;;1.90;1.80;;;21.60;44.20;;;;;;5003564;28;20491;-69
2021/05/01 03:03:55;;;;;;;2.30;2.20;;;21.50;44.00;;;;;;5009552;28;20419;-69
2021/05/01 03:06:22;;;;;;;1.90;1.80;;;21.50;44.10;;;;;;5007637;28;20413;-69
2021/05/01 03:08:48;;;;;;;1.90;1.80;;;21.50;44.10;;;;;;5009424;28;20415;-69
2021/05/01 03:11:14;;;;;;;2.30;2.10;;;21.50;44.10;;;;;;5006994;28;20473;-68
2021/05/01 03:13:41;;;;;;;2.00;1.90;;;21.50;44.10;;;;;;5004978;28;20433;-69
2021/05/01 03:16:07;;;;;;;1.75;1.70;;;21.50;44.10;;;;;;5006246;28;20440;-68
2021/05/01 03:18:33;;;;;;;2.28;2.17;;;21.50;44.20;;;;;;5009134;28;20550;-67
2021/05/01 03:20:59;;;;;;;1.70;1.60;;;21.60;44.30;;;;;;4989073;28;20840;-68
2021/05/01 03:23:27;;;;;;;1.80;1.70;;;21.50;43.90;;;;;;5007184;28;20793;-68
2021/05/01 03:25:53;;;;;;;1.75;1.70;;;21.60;44.00;;;;;;5008534;28;20424;-68
2021/05/01 03:28:21;;;;;;;2.00;1.90;;;21.60;44.00;;;;;;5008431;28;20417;-68
2021/05/01 03:30:47;;;;;;;2.00;1.90;;;21.60;43.80;;;;;;5007550;28;20431;-69
2021/05/01 03:33:13;;;;;;;1.95;1.85;;;21.60;43.90;;;;;;5006116;28;20427;-69
2021/05/01 03:35:39;;;;;;;1.65;1.55;;;21.60;44.00;;;;;;5009119;28;20415;-69
2021/05/01 03:38:05;;;;;;;1.90;1.80;;;21.60;44.00;;;;;;5008028;28;20423;-68
2021/05/01 03:40:32;;;;;;;1.88;1.77;;;21.60;44.10;;;;;;5008613;28;21010;-69
2021/05/01 03:42:58;;;;;;;1.80;1.70;;;21.50;44.00;;;;;;5008266;28;20832;-68
2021/05/01 03:45:25;;;;;;;1.80;1.70;;;21.50;43.90;;;;;;5004735;28;20770;-69
2021/05/01 03:47:51;;;;;;;1.88;1.77;;;21.60;45.00;;;;;;5003870;28;20413;-69
2021/05/01 03:50:17;;;;;;;1.50;1.50;;;21.60;44.00;;;;;;4999905;28;20440;-69
2021/05/01 03:52:43;;;;;;;1.50;1.50;;;21.60;44.00;;;;;;5006373;28;20411;-68
2021/05/01 03:55:10;;;;;;;1.80;1.70;;;21.60;44.00;;;;;;5021940;28;20429;-68
2021/05/01 03:57:37;;;;;;;1.77;1.67;;;21.60;43.90;;;;;;5004969;28;20415;-68
2021/05/01 04:00:04;;;;;;;1.70;1.70;;;21.60;43.90;;;;;;5008591;28;20923;-68
2021/05/01 04:02:31;;;;;;;1.75;1.65;;;21.60;44.00;;;;;;4992836;28;20409;-68
2021/05/01 04:04:57;;;;;;;1.85;1.75;;;21.60;43.90;;;;;;5008824;28;20836;-69
2021/05/01 04:07:23;;;;;;;1.70;1.60;;;21.60;43.90;;;;;;5007608;28;20938;-69
2021/05/01 04:09:49;;;;;;;2.00;1.90;;;21.60;44.00;;;;;;5009526;28;20767;-69
2021/05/01 04:12:15;;;;;;;2.20;2.10;;;21.50;44.10;;;;;;5004858;28;20420;-68
2021/05/01 04:14:42;;;;;;;1.85;1.83;;;21.50;44.00;;;;;;5006975;28;20412;-68
2021/05/01 04:17:08;;;;;;;1.67;1.58;;;21.50;43.90;;;;;;4993311;28;20425;-68
2021/05/01 04:19:34;;;;;;;2.17;2.08;;;21.50;44.10;;;;;;5001309;28;20931;-68
2021/05/01 04:22:04;;;;;;;1.70;1.60;;;21.60;44.20;;;;;;5005041;28;20440;-69
2021/05/01 04:24:30;;;;;;;1.90;1.80;;;21.60;44.20;;;;;;5018218;28;20450;-69
2021/05/01 04:26:57;;;;;;;1.88;1.88;;;21.60;44.20;;;;;;5005222;28;20495;-69
2021/05/01 04:29:23;;;;;;;1.70;1.60;;;21.60;44.10;;;;;;5006249;28;20425;-69
2021/05/01 04:31:50;;;;;;;1.60;1.50;;;21.60;44.00;;;;;;5005634;28;20432;-69
2021/05/01 04:34:18;;;;;;;1.97;1.87;;;21.60;43.90;;;;;;5002180;28;20962;-68
2021/05/01 04:36:44;;;;;;;1.98;1.88;;;21.60;44.10;;;;;;5014845;28;20835;-68
2021/05/01 04:39:10;;;;;;;1.75;1.65;;;21.60;44.10;;;;;;5007714;28;20417;-68
2021/05/01 04:41:36;;;;;;;1.80;1.70;;;21.60;44.00;;;;;;5004314;28;20405;-68
2021/05/01 04:44:03;;;;;;;1.70;1.70;;;21.60;44.10;;;;;;5013167;28;20417;-68
2021/05/01 04:46:29;;;;;;;1.90;1.80;;;21.50;44.10;;;;;;5004585;28;20478;-69
2021/05/01 04:48:56;;;;;;;1.73;1.70;;;21.50;44.10;;;;;;5006026;28;20429;-67
2021/05/01 04:51:22;;;;;;;1.80;1.80;;;21.50;44.00;;;;;;5009377;28;21048;-69
2021/05/01 04:53:48;;;;;;;1.70;1.60;;;21.50;44.10;;;;;;5006510;28;20424;-68
2021/05/01 04:56:14;;;;;;;1.80;1.80;;;21.40;44.10;;;;;;5002447;28;20423;-68
2021/05/01 04:58:41;;;;;;;1.63;1.52;;;21.40;44.20;;;;;;5001431;28;20415;-68
2021/05/01 05:01:07;;;;;;;2.00;1.90;;;21.40;44.20;;;;;;5007752;28;20414;-69
2021/05/01 05:03:33;;;;;;;1.98;1.88;;;21.40;44.20;;;;;;5009211;28;20406;-68
2021/05/01 05:06:00;;;;;;;1.90;1.80;;;21.40;44.20;;;;;;5006968;28;20440;-68
2021/05/01 05:08:27;;;;;;;1.50;1.40;;;21.40;44.20;;;;;;5008030;28;20422;-69
2021/05/01 05:10:53;;;;;;;2.08;1.98;;;21.40;44.30;;;;;;5001041;28;20415;-68
2021/05/01 05:13:23;;;;;;;1.90;1.80;;;21.40;44.20;;;;;;5011695;28;20424;-69
2021/05/01 05:15:50;;;;;;;2.10;2.00;;;21.40;44.30;;;;;;5005181;28;20490;-69
2021/05/01 05:18:16;;;;;;;1.80;1.40;;;21.40;44.40;;;;;;5007164;28;20427;-69
2021/05/01 05:20:42;;;;;;;1.60;1.60;;;21.40;44.20;;;;;;5006292;28;20412;-69
2021/05/01 05:23:09;;;;;;;1.63;1.52;;;21.50;45.10;;;;;;5010547;28;20418;-68
2021/05/01 05:25:35;;;;;;;1.50;1.50;;;21.50;44.20;;;;;;5006494;28;20481;-68
2021/05/01 05:28:01;;;;;;;2.00;1.90;;;21.50;44.20;;;;;;5003466;28;20416;-69
2021/05/01 05:30:27;;;;;;;2.00;1.90;;;21.50;44.10;;;;;;4994926;28;20425;-68
2021/05/01 05:32:54;;;;;;;2.00;1.90;;;21.40;44.00;;;;;;5014308;28;20420;-69
2021/05/01 05:35:20;;;;;;;1.80;1.70;;;21.40;44.20;;;;;;5006792;28;21060;-69
2021/05/01 05:37:46;;;;;;;1.58;1.48;;;21.40;44.10;;;;;;4999838;28;20941;-69
2021/05/01 05:40:14;;;;;;;1.80;1.70;;;21.40;44.10;;;;;;5008041;28;20402;-69
2021/05/01 05:42:41;;;;;;;1.80;1.70;;;21.40;44.30;;;;;;5009172;28;20423;-68
2021/05/01 05:45:09;;;;;;;2.40;1.80;;;21.40;44.20;;;;;;5001949;28;20427;-68
2021/05/01 05:47:35;;;;;;;1.58;1.48;;;21.50;44.20;;;;;;5005200;28;20473;-68
2021/05/01 05:50:01;;;;;;;1.40;1.30;;;21.50;44.20;;;;;;5004036;28;20431;-68
2021/05/01 05:52:27;;;;;;;1.50;1.40;;;21.50;44.20;;;;;;5006272;28;20424;-68
2021/05/01 05:54:53;;;;;;;1.50;1.40;;;21.50;44.10;;;;;;5001691;28;20432;-68
2021/05/01 05:57:20;;;;;;;1.30;1.30;;;21.60;44.10;;;;;;5001955;28;20435;-68
2021/05/01 05:59:46;;;;;;;1.60;1.60;;;21.60;44.10;;;;;;5005273;28;20412;-69
2021/05/01 06:02:15;;;;;;;1.35;1.35;;;21.60;44.00;;;;;;5000847;28;20413;-68
2021/05/01 06:04:42;;;;;;;1.73;1.60;;;21.60;44.00;;;;;;4998625;28;20416;-68
2021/05/01 06:07:10;;;;;;;1.40;1.40;;;21.60;43.80;;;;;;4998346;28;20414;-68
2021/05/01 06:09:37;;;;;;;1.30;1.20;;;21.60;44.10;;;;;;5008942;28;20951;-68
2021/05/01 06:12:04;;;;;;;1.55;1.45;;;21.60;43.90;;;;;;5005143;28;21105;-68
2021/05/01 06:14:31;;;;;;;1.50;1.40;;;21.60;44.00;;;;;;5005229;28;20563;-69
2021/05/01 06:16:57;;;;;;;2.20;1.50;;;21.60;44.00;;;;;;4994067;28;20510;-68
2021/05/01 06:19:24;;;;;;;1.40;1.30;;;21.60;44.00;;;;;;5006058;28;20421;-68
2021/05/01 06:21:50;;;;;;;1.60;1.50;;;21.60;44.00;;;;;;5015175;28;20409;-68
2021/05/01 06:24:16;;;;;;;1.60;1.50;;;21.60;44.10;;;;;;5005847;28;20476;-68
2021/05/01 06:26:43;;;;;;;1.40;1.30;;;21.50;44.00;;;;;;5002194;28;20440;-67
2021/05/01 06:29:09;;;;;;;1.55;1.45;;;21.50;44.00;;;;;;4997635;28;20419;-66
2021/05/01 06:31:36;;;;;;;1.40;1.30;;;21.50;44.00;;;;;;5003499;28;20495;-68
2021/05/01 06:34:03;;;;;;;1.67;1.58;;;21.50;44.00;;;;;;4998623;28;20484;-69
2021/05/01 06:36:30;;;;;;;1.80;1.70;;;21.40;44.00;;;;;;4994579;28;20417;-69
2021/05/01 06:39:02;;;;;;;1.38;1.27;;;21.50;44.10;;;;;;5012511;28;20444;-68
2021/05/01 06:41:37;;;;;;;1.20;1.10;;;21.40;44.10;;;;;;5002171;28;20413;-69
2021/05/01 06:44:06;;;;;;;1.80;1.35;;;21.50;44.20;;;;;;5004794;28;20777;-69
2021/05/01 06:46:36;;;;;;;1.42;1.33;;;21.60;44.10;;;;;;5001664;28;20423;-69
2021/05/01 06:49:03;;;;;;;1.80;1.70;;;21.70;43.90;;;;;;5008960;28;20478;-69
2021/05/01 06:51:30;;;;;;;1.45;1.35;;;21.70;43.70;;;;;;5010767;28;20413;-69
2021/05/01 06:53:56;;;;;;;1.23;1.23;;;21.80;43.60;;;;;;5009922;28;20944;-69
2021/05/01 06:56:23;;;;;;;1.58;1.45;;;21.80;43.40;;;;;;4994089;28;20425;-68
2021/05/01 06:58:49;;;;;;;1.50;1.40;;;21.80;44.20;;;;;;5003400;28;20413;-68
2021/05/01 07:01:15;;;;;;;1.23;1.23;;;21.80;43.40;;;;;;5008433;28;20475;-69
2021/05/01 07:03:44;;;;;;;1.40;1.30;;;21.80;43.50;;;;;;5009167;28;20419;-68
2021/05/01 07:06:10;;;;;;;1.98;1.30;;;21.80;43.60;;;;;;4999021;28;20414;-67
2021/05/01 07:08:36;;;;;;;1.70;1.60;;;21.80;43.60;;;;;;5015949;28;20447;-69
2021/05/01 07:11:06;;;;;;;1.60;1.50;;;21.70;43.60;;;;;;5013884;28;20428;-69
2021/05/01 07:13:32;;;;;;;1.30;1.20;;;21.70;43.70;;;;;;5005863;28;20428;-69
2021/05/01 07:16:02;;;;;;;1.50;1.40;;;21.70;43.70;;;;;;5003731;28;20428;-67
2021/05/01 07:18:28;;;;;;;1.52;1.42;;;21.70;43.60;;;;;;5004920;28;20429;-69
2021/05/01 07:20:57;;;;;;;1.50;1.40;;;21.70;43.80;;;;;;4993246;28;20424;-68
2021/05/01 07:23:23;;;;;;;1.60;1.40;;;21.70;43.70;;;;;;5001544;28;20427;-68
2021/05/01 07:25:49;;;;;;;1.30;1.20;;;21.70;43.60;;;;;;5003598;28;20460;-69
2021/05/01 07:28:17;;;;;;;1.60;1.50;;;21.60;43.60;;;;;;5012174;28;20419;-69
2021/05/01 07:30:43;;;;;;;1.60;1.50;;;21.60;43.70;;;;;;5007865;28;20525;-69
2021/05/01 07:33:12;;;;;;;1.67;1.58;;;21.60;43.60;;;;;;4993109;28;20442;-69
2021/05/01 07:35:38;;;;;;;1.33;1.25;;;21.70;43.70;;;;;;5005714;28;21050;-69
2021/05/01 07:38:06;;;;;;;1.40;1.30;;;21.70;43.60;;;;;;5003793;28;20497;-69
2021/05/01 07:40:33;;;;;;;1.33;1.30;;;21.80;43.70;;;;;;4997315;28;21436;-69
2021/05/01 07:42:59;;;;;;;1.63;1.52;;;21.80;43.50;;;;;;5007316;28;20421;-69
2021/05/01 07:45:25;;;;;;;1.50;1.40;;;21.80;43.40;;;;;;5007514;28;20433;-69
2021/05/01 07:47:53;;;;;;;1.20;1.20;;;21.80;43.40;;;;;;5006293;28;20409;-69
2021/05/01 07:50:19;;;;;;;1.20;1.20;;;21.80;43.50;;;;;;5005117;28;20419;-69
2021/05/01 07:52:45;;;;;;;1.25;1.25;;;21.80;43.50;;;;;;5005946;28;20411;-68
2021/05/01 07:55:13;;;;;;;1.30;1.20;;;21.80;43.60;;;;;;5008123;28;21585;-69
2021/05/01 07:57:39;;;;;;;1.30;1.20;;;21.70;43.60;;;;;;5003801;28;20415;-69
2021/05/01 08:00:07;;;;;;;1.52;1.42;;;21.80;43.60;;;;;;5007909;28;20414;-68
2021/05/01 08:02:34;;;;;;;1.10;1.10;;;21.80;43.50;;;;;;4993564;28;20436;-68
2021/05/01 08:05:00;;;;;;;1.40;1.30;;;21.80;43.40;;;;;;5005734;28;20412;-68
2021/05/01 08:07:26;;;;;;;1.83;1.30;;;21.90;43.50;;;;;;5007975;28;20419;-68
2021/05/01 08:09:52;;;;;;;1.23;1.13;;;21.90;43.50;;;;;;4999776;28;20413;-69
2021/05/01 08:12:19;;;;;;;2.40;1.80;;;21.90;44.30;;;;;;5004155;28;20425;-69
2021/05/01 08:14:45;;;;;;;1.10;1.00;;;21.90;43.30;;;;;;5006953;28;20442;-68
2021/05/01 08:17:11;;;;;;;1.40;1.40;;;21.90;43.40;;;;;;5004236;28;20411;-69
2021/05/01 08:19:37;;;;;;;1.20;1.20;;;22.00;43.30;;;;;;4995823;28;20518;-68
2021/05/01 08:22:04;;;;;;;1.60;1.50;;;22.00;43.40;;;;;;5006357;28;20427;-69
2021/05/01 08:24:30;;;;;;;1.83;1.30;;;22.00;43.40;;;;;;4984853;28;20983;-68
2021/05/01 08:26:56;;;;;;;2.15;1.30;;;21.90;43.40;;;;;;5006125;28;20999;-68
2021/05/01 08:29:23;;;;;;;1.52;1.50;;;21.90;43.40;;;;;;5005791;28;20900;-69
2021/05/01 08:31:49;;;;;;;1.58;1.48;;;21.90;43.50;;;;;;5005017;28;20995;-69
2021/05/01 08:34:15;;;;;;;1.00;1.00;;;21.90;43.50;;;;;;5001585;28;20422;-68
2021/05/01 08:36:41;;;;;;;1.38;1.27;;;21.90;43.50;;;;;;5018097;28;20785;-69
2021/05/01 08:39:07;;;;;;;1.90;1.20;;;21.90;43.70;;;;;;5005552;28;21129;-69
2021/05/01 08:41:33;;;;;;;1.33;1.15;;;21.80;43.70;;;;;;5005917;28;20782;-69
2021/05/01 08:44:04;;;;;;;1.20;1.20;;;21.80;43.70;;;;;;5004321;28;20438;-69
2021/05/01 08:46:31;;;;;;;1.30;1.20;;;21.80;43.70;;;;;;5003290;28;20417;-69
2021/05/01 08:48:57;;;;;;;1.00;1.00;;;21.80;43.70;;;;;;5005222;28;20421;-67
2021/05/01 08:51:23;;;;;;;1.30;1.30;;;21.70;43.60;;;;;;5000327;28;20798;-69
2021/05/01 08:53:49;;;;;;;1.30;1.20;;;21.70;44.60;;;;;;5016699;28;20959;-68
2021/05/01 08:56:15;;;;;;;1.10;1.10;;;21.80;43.80;;;;;;5004236;28;20438;-69
2021/05/01 08:58:42;;;;;;;1.20;1.00;;;21.80;43.70;;;;;;5002563;28;20541;-69
2021/05/01 09:01:12;;;;;;;1.60;1.50;;;21.80;43.60;;;;;;5008476;28;20434;-69
2021/05/01 09:03:39;;;;;;;1.50;1.00;;;21.80;43.70;;;;;;5004053;28;21022;-67
2021/05/01 09:06:06;;;;;;;1.30;1.30;;;21.90;43.70;;;;;;5014553;28;20858;-68
2021/05/01 09:08:32;;;;;;;1.30;1.20;;;21.90;43.70;;;;;;5005241;28;20992;-69
2021/05/01 09:11:02;;;;;;;0.98;0.98;;;21.90;43.60;;;;;;5012920;28;20414;-69
2021/05/01 09:13:28;;;;;;;1.40;1.30;;;21.90;43.60;;;;;;4985530;28;20907;-69
2021/05/01 09:15:59;;;;;;;0.95;0.95;;;21.80;43.70;;;;;;5004251;28;20426;-68
2021/05/01 09:18:25;;;;;;;0.95;0.95;;;21.80;43.50;;;;;;5007549;28;20423;-68
2021/05/01 09:20:52;;;;;;;1.08;1.05;;;21.80;43.60;;;;;;5004898;28;20964;-69
2021/05/01 09:23:18;;;;;;;1.05;1.05;;;21.80;43.70;;;;;;5006231;28;20410;-67
2021/05/01 09:25:53;;;;;;;1.38;1.27;;;21.70;43.60;;;;;;5014499;28;20473;-69
2021/05/01 09:28:20;;;;;;;1.10;1.10;;;21.70;43.70;;;;;;4987430;28;20823;-68
2021/05/01 09:30:59;;;;;;;1.20;1.10;;;21.70;43.80;;;;;;5016879;28;20418;-69
2021/05/01 09:33:26;;;;;;;1.00;1.00;;;21.70;43.80;;;;;;5003043;28;20428;-69
2021/05/01 09:35:59;;;;;;;1.00;1.00;;;21.70;43.90;;;;;;5005964;28;20424;-68
2021/05/01 09:38:28;;;;;;;1.25;1.15;;;21.70;43.80;;;;;;5004811;28;20413;-68
2021/05/01 09:40:54;;;;;;;1.50;1.50;;;21.70;43.90;;;;;;5004009;28;20423;-69
2021/05/01 09:43:21;;;;;;;1.00;1.00;;;21.70;44.10;;;;;;5004830;28;20431;-67
2021/05/01 09:45:47;;;;;;;1.30;1.30;;;21.60;44.00;;;;;;5007637;28;20415;-68
2021/05/01 09:48:14;;;;;;;1.27;1.27;;;21.70;44.10;;;;;;5004199;28;20411;-69
2021/05/01 09:50:41;;;;;;;1.10;1.10;;;21.70;44.10;;;;;;5002903;28;20414;-69
2021/05/01 09:53:10;;;;;;;0.98;0.98;;;21.70;44.00;;;;;;5006484;28;20452;-69
2021/05/01 09:55:50;;;;;;;1.20;1.10;;;21.70;43.80;;;;;;5006185;28;20450;-68
2021/05/01 09:58:21;;;;;;;1.25;1.10;;;21.80;43.90;;;;;;5000712;28;20411;-68
2021/05/01 10:00:48;;;;;;;1.35;1.30;;;21.80;43.80;;;;;;5002993;28;20422;-68
2021/05/01 10:03:21;;;;;;;1.20;1.20;;;21.80;43.60;;;;;;5001792;28;20502;-68
2021/05/01 10:05:47;;;;;;;1.20;1.20;;;21.80;43.50;;;;;;5012738;28;20454;-69
2021/05/01 10:08:15;;;;;;;1.20;1.13;;;21.80;43.80;;;;;;5001695;28;20424;-68
2021/05/01 10:10:41;;;;;;;1.20;1.20;;;21.80;43.70;;;;;;5003530;28;20465;-68
2021/05/01 10:13:07;;;;;;;1.00;1.00;;;21.80;43.70;;;;;;4997711;28;20434;-68
2021/05/01 10:15:33;;;;;;;0.90;0.90;;;21.80;43.90;;;;;;5004643;28;20417;-68
2021/05/01 10:18:08;;;;;;;1.00;1.00;;;21.80;43.60;;;;;;5006517;28;20417;-68
2021/05/01 10:20:41;;;;;;;1.07;1.07;;;21.80;43.80;;;;;;4991552;28;20476;-69
2021/05/01 10:23:08;;;;;;;1.40;1.30;;;21.80;43.40;;;;;;5008966;28;20965;-68
2021/05/01 10:25:35;;;;;;;1.40;0.90;;;21.80;43.70;;;;;;5009414;28;20419;-68
2021/05/01 10:28:03;;;;;;;1.30;1.20;;;21.80;43.80;;;;;;5008306;28;20471;-69
2021/05/01 10:30:33;;;;;;;1.00;1.00;;;21.80;43.80;;;;;;5010093;28;20839;-68
2021/05/01 10:33:09;;;;;;;1.20;1.20;;;21.80;43.60;;;;;;5007604;28;20759;-70
2021/05/01 10:35:35;;;;;;;1.00;1.00;;;21.80;43.70;;;;;;5008374;28;20433;-68
2021/05/01 10:38:02;;;;;;;1.30;1.30;;;21.80;43.70;;;;;;5008087;28;20420;-68
2021/05/01 10:40:42;;;;;;;1.40;1.30;;;21.80;43.70;;;;;;5007936;28;20826;-69
2021/05/01 10:43:09;;;;;;;1.30;1.30;;;21.90;43.70;;;;;;5011390;28;20401;-69
2021/05/01 10:45:35;;;;;;;1.30;1.20;;;21.90;43.70;;;;;;5009159;28;20419;-69
2021/05/01 10:48:09;;;;;;;1.10;1.00;;;21.80;43.80;;;;;;5009230;28;20411;-68
2021/05/01 10:50:35;;;;;;;1.10;1.00;;;21.90;43.70;;;;;;5005935;28;20970;-69
2021/05/01 10:53:03;;;;;;;1.45;1.30;;;21.80;43.70;;;;;;5005192;28;20416;-69
2021/05/01 10:55:43;;;;;;;1.50;1.25;;;21.80;43.90;;;;;;5002616;28;21392;-68
2021/05/01 10:58:09;;;;;;;1.30;1.20;;;21.80;43.90;;;;;;5005867;28;20436;-69
2021/05/01 11:00:42;;;;;;;1.33;1.23;;;21.80;43.80;;;;;;5008198;28;20448;-68
2021/05/01 11:03:09;;;;;;;1.30;1.20;;;21.80;43.90;;;;;;5007881;28;20421;-68
2021/05/01 11:05:35;;;;;;;1.20;1.20;;;21.70;43.90;;;;;;5004181;28;20429;-68
2021/05/01 11:08:03;;;;;;;1.40;1.30;;;21.70;44.00;;;;;;5017029;28;21092;-68
2021/05/01 11:10:29;;;;;;;1.00;1.00;;;21.70;44.60;;;;;;5008299;28;20451;-68
2021/05/01 11:12:56;;;;;;;1.58;1.48;;;21.60;44.10;;;;;;4999951;28;20414;-69
2021/05/01 11:15:23;;;;;;;1.15;1.00;;;21.60;44.20;;;;;;5005692;28;20429;-69
2021/05/01 11:17:55;;;;;;;0.90;0.90;;;21.70;44.30;;;;;;5003687;28;20429;-68
2021/05/01 11:20:22;;;;;;;1.30;1.30;;;21.70;44.20;;;;;;4998715;28;20448;-68
2021/05/01 11:22:50;;;;;;;1.03;1.03;;;21.70;44.00;;;;;;5017738;28;20419;-69
2021/05/01 11:25:17;;;;;;;1.40;1.30;;;21.70;44.00;;;;;;5007804;28;20919;-68
2021/05/01 11:27:44;;;;;;;1.10;1.10;;;21.70;43.70;;;;;;5006237;28;20415;-68
2021/05/01 11:30:13;;;;;;;1.20;1.10;;;21.80;44.00;;;;;;5005737;28;20423;-68
2021/05/01 11:32:39;;;;;;;1.20;1.10;;;21.70;43.90;;;;;;5005467;28;20411;-68
2021/05/01 11:35:06;;;;;;;1.10;1.10;;;21.70;44.00;;;;;;5008634;28;21770;-67
2021/05/01 11:37:37;;;;;;;1.50;1.40;;;21.70;44.10;;;;;;5007633;28;20416;-68
2021/05/01 11:40:04;;;;;;;1.10;1.10;;;21.70;44.10;;;;;;5001169;28;20417;-68
2021/05/01 11:42:30;;;;;;;1.00;1.00;;;21.70;44.10;;;;;;5005483;28;20424;-68
2021/05/01 11:44:56;;;;;;;1.40;1.40;;;21.60;44.20;;;;;;4996125;28;20506;-69
2021/05/01 11:47:24;;;;;;;1.20;1.20;;;21.60;44.30;;;;;;5006239;28;20915;-69
2021/05/01 11:49:50;;;;;;;1.30;1.30;;;21.60;44.20;;;;;;5003893;28;20424;-68
2021/05/01 11:52:31;;;;;;;1.30;1.30;;;21.60;44.40;;;;;;5007839;28;20469;-69
2021/05/01 11:55:23;;;;;;;1.20;1.20;;;21.60;44.60;;;;;;5003900;28;21041;-69
2021/05/01 11:57:50;;;;;;;1.13;1.10;;;21.60;44.40;;;;;;5003273;28;20897;-69
2021/05/01 12:00:31;;;;;;;1.37;1.27;;;21.50;44.30;;;;;;5005442;28;20533;-70
2021/05/01 12:02:58;;;;;;;1.02;1.02;;;21.50;44.40;;;;;;5003848;28;20415;-69
2021/05/01 12:05:25;;;;;;;0.95;0.95;;;21.60;44.40;;;;;;5007237;28;20431;-69
2021/05/01 12:07:54;;;;;;;0.90;0.90;;;21.60;44.40;;;;;;5008638;28;20411;-69
2021/05/01 12:10:22;;;;;;;1.30;1.30;;;21.70;44.40;;;;;;5002719;28;20434;-69
2021/05/01 12:12:51;;;;;;;1.15;1.15;;;21.70;44.30;;;;;;5006765;28;20480;-69
2021/05/01 12:15:17;;;;;;;1.40;1.40;;;21.70;44.00;;;;;;5007833;28;20485;-68
2021/05/01 12:17:50;;;;;;;1.10;1.10;;;21.70;44.00;;;;;;5000316;28;20415;-68
2021/05/01 12:20:18;;;;;;;1.20;1.10;;;21.80;44.10;;;;;;4993120;28;20423;-69
2021/05/01 12:22:44;;;;;;;1.27;1.27;;;21.80;43.90;;;;;;5010260;28;20419;-69
2021/05/01 12:25:35;;;;;;;1.10;1.10;;;21.80;44.10;;;;;;5007222;28;20414;-69
2021/05/01 12:28:02;;;;;;;1.10;1.10;;;21.70;44.00;;;;;;5004806;28;20720;-69
2021/05/01 12:30:50;;;;;;;1.15;1.15;;;21.80;44.10;;;;;;5003740;28;20438;-69
2021/05/01 12:33:52;;;;;;;1.50;1.20;;;21.70;44.10;;;;;;4997341;28;20472;-70
2021/05/01 12:36:24;;;;;;;1.50;1.40;;;21.70;44.10;;;;;;5012296;28;20524;-68
2021/05/01 12:38:53;;;;;;;1.20;1.20;;;21.70;44.10;;;;;;5006482;28;20413;-69
2021/05/01 12:41:20;;;;;;;1.40;1.30;;;21.60;44.10;;;;;;5005954;28;20764;-68
2021/05/01 12:43:47;;;;;;;1.33;1.23;;;21.70;44.20;;;;;;5002162;28;21140;-69
2021/05/01 12:46:14;;;;;;;1.90;1.20;;;21.70;44.10;;;;;;5009128;28;20518;-69
2021/05/01 12:48:43;;;;;;;1.50;1.40;;;21.70;44.10;;;;;;5008663;28;20932;-68